createdAt,value
2023-09-23T00:05:17.666Z,5.30
2023-09-23T00:10:40.075Z,5.20
2023-09-23T00:16:04.361Z,5.38
2023-09-23T00:21:26.177Z,5.30
2023-09-23T00:26:49.671Z,5.45
2023-09-23T00:32:13.660Z,5.20
2023-09-23T00:37:35.324Z,5.53
2023-09-23T00:42:57.818Z,5.07
2023-09-23T00:48:19.802Z,5.70
2023-09-23T00:53:42.010Z,5.60
2023-09-23T00:59:08.059Z,5.68
2023-09-23T01:04:30.631Z,5.43
2023-09-23T01:09:52.229Z,5.88
2023-09-23T01:15:14.146Z,6.03
2023-09-23T01:20:38.563Z,6.45
2023-09-23T01:26:00.212Z,6.20
2023-09-23T01:31:23.627Z,5.90
2023-09-23T01:36:45.392Z,5.75
2023-09-23T01:42:08.665Z,6.10
2023-09-23T01:47:30.449Z,6.03
2023-09-23T01:52:52.471Z,6.50
2023-09-23T01:58:15.354Z,6.07
2023-09-23T02:03:37.097Z,5.85
2023-09-23T02:08:58.795Z,6.20
2023-09-23T02:14:20.407Z,5.57
2023-09-23T02:19:42.216Z,5.97
2023-09-23T02:25:08.978Z,5.50
2023-09-23T02:30:32.036Z,5.72
2023-09-23T02:35:53.953Z,6.10
2023-09-23T02:41:15.664Z,6.45
2023-09-23T02:46:38.487Z,6.25
2023-09-23T02:52:00.050Z,6.78
2023-09-23T02:57:22.166Z,6.72
2023-09-23T03:02:54.561Z,7.25
2023-09-23T03:08:16.507Z,6.70
2023-09-23T03:13:38.137Z,7.55
2023-09-23T03:19:12.067Z,7.00
2023-09-23T03:24:33.980Z,6.68
2023-09-23T03:29:56.299Z,6.15
2023-09-23T03:35:19.190Z,5.50
2023-09-23T03:40:40.878Z,4.30
2023-09-23T03:46:02.515Z,4.13
2023-09-23T03:51:25.317Z,3.80
2023-09-23T03:56:46.876Z,3.05
2023-09-23T04:02:08.614Z,3.00
2023-09-23T04:07:30.208Z,3.15
2023-09-23T04:12:52.724Z,3.17
2023-09-23T04:18:14.346Z,3.17
2023-09-23T04:23:36.727Z,3.00
2023-09-23T04:28:59.265Z,2.92
2023-09-23T04:34:20.902Z,3.10
2023-09-23T04:39:42.551Z,2.83
2023-09-23T04:45:05.089Z,2.78
2023-09-23T04:50:28.857Z,2.72
2023-09-23T04:55:50.602Z,2.92
2023-09-23T05:01:13.451Z,2.88
2023-09-23T05:06:36.916Z,3.22
2023-09-23T05:11:59.155Z,3.08
2023-09-23T05:17:23.094Z,3.30
2023-09-23T05:22:44.851Z,3.25
2023-09-23T05:28:09.179Z,3.13
2023-09-23T05:33:32.379Z,3.55
2023-09-23T05:38:53.923Z,3.53
2023-09-23T05:44:17.553Z,3.75
2023-09-23T05:49:40.085Z,3.63
2023-09-23T05:55:01.960Z,4.07
2023-09-23T06:00:23.789Z,4.78
2023-09-23T06:05:46.030Z,4.85
2023-09-23T06:11:08.964Z,4.97
2023-09-23T06:16:30.644Z,5.38
2023-09-23T06:21:55.010Z,5.88
2023-09-23T06:27:17.905Z,5.80
2023-09-23T06:32:39.646Z,6.50
2023-09-23T06:38:01.251Z,7.70
2023-09-23T06:43:22.932Z,7.68
2023-09-23T06:48:44.609Z,8.10
2023-09-23T06:54:06.437Z,8.05
2023-09-23T06:59:28.044Z,8.18
2023-09-23T07:04:49.921Z,9.50
2023-09-23T07:10:12.003Z,9.63
2023-09-23T07:15:38.281Z,10.07
2023-09-23T07:20:59.957Z,10.85
2023-09-23T07:26:22.958Z,11.88
2023-09-23T07:31:44.597Z,12.93
2023-09-23T07:37:07.882Z,12.77
2023-09-23T07:42:30.649Z,15.63
2023-09-23T07:47:52.309Z,16.50
2023-09-23T07:53:13.971Z,17.70
2023-09-23T07:58:35.572Z,17.83
2023-09-23T08:03:57.127Z,18.10
2023-09-23T08:09:18.713Z,16.77
2023-09-23T08:14:40.341Z,15.30
2023-09-23T08:20:12.654Z,14.68
2023-09-23T08:25:37.605Z,13.82
2023-09-23T08:30:59.142Z,13.90
2023-09-23T08:36:20.729Z,14.00
2023-09-23T08:41:42.385Z,13.25
2023-09-23T08:47:05.611Z,13.32
2023-09-23T08:52:28.061Z,12.75
2023-09-23T08:57:49.618Z,12.18
2023-09-23T09:03:11.233Z,12.35
2023-09-23T09:08:33.183Z,12.93
2023-09-23T09:13:55.228Z,12.13
2023-09-23T09:19:16.925Z,12.07
2023-09-23T09:24:38.577Z,11.70
2023-09-23T09:30:12.498Z,12.02
2023-09-23T09:35:35.363Z,12.63
2023-09-23T09:41:05.863Z,11.50
2023-09-23T09:46:30.851Z,10.93
2023-09-23T09:51:53.492Z,10.67
2023-09-23T09:57:15.210Z,9.85
2023-09-23T10:02:38.467Z,9.52
2023-09-23T10:08:00.912Z,10.02
2023-09-23T10:13:25.672Z,10.63
2023-09-23T10:18:58.543Z,10.67
2023-09-23T10:24:21.742Z,12.45
2023-09-23T10:29:51.097Z,11.57
2023-09-23T10:35:12.864Z,11.05
2023-09-23T10:40:34.496Z,9.45
2023-09-23T10:45:58.588Z,9.52
2023-09-23T10:51:20.268Z,9.52
2023-09-23T10:56:42.496Z,8.23
2023-09-23T11:02:05.791Z,7.88
2023-09-23T11:07:28.603Z,7.40
2023-09-23T11:12:50.330Z,7.55
2023-09-23T11:18:17.168Z,7.30
2023-09-23T11:23:40.055Z,6.95
2023-09-23T11:29:01.683Z,6.10
2023-09-23T11:34:23.294Z,5.88
2023-09-23T11:39:44.889Z,5.35
2023-09-23T11:45:06.912Z,5.30
2023-09-23T11:50:28.629Z,4.40
2023-09-23T11:55:50.513Z,4.30
2023-09-23T12:01:12.145Z,4.38
2023-09-23T12:06:37.806Z,4.28
2023-09-23T12:11:59.449Z,4.18
2023-09-23T12:17:21.120Z,3.95
2023-09-23T12:22:42.886Z,3.45
2023-09-23T12:28:05.225Z,2.90
2023-09-23T12:33:26.832Z,2.40
2023-09-23T12:38:48.705Z,2.55
2023-09-23T12:44:10.976Z,2.40
2023-09-23T12:49:32.630Z,2.42
2023-09-23T12:54:54.242Z,2.50
2023-09-23T13:00:15.928Z,2.38
2023-09-23T13:05:38.132Z,2.38
2023-09-23T13:11:13.872Z,2.15
2023-09-23T13:16:35.519Z,2.50
2023-09-23T13:21:57.168Z,2.30
2023-09-23T13:27:19.502Z,2.00
2023-09-23T13:32:41.274Z,1.92
2023-09-23T13:38:03.052Z,2.30
2023-09-23T13:43:25.352Z,2.13
2023-09-23T13:48:47.161Z,2.00
2023-09-23T13:54:08.983Z,1.90
2023-09-23T13:59:30.558Z,2.20
2023-09-23T14:04:52.144Z,1.63
2023-09-23T14:10:21.310Z,2.08
2023-09-23T14:15:44.259Z,2.03
2023-09-23T14:21:05.924Z,2.40
2023-09-23T14:26:27.514Z,2.22
2023-09-23T14:31:49.100Z,2.50
2023-09-23T14:37:10.709Z,3.10
2023-09-23T14:42:32.340Z,3.20
2023-09-23T14:47:54.073Z,3.10
2023-09-23T14:53:17.202Z,3.80
2023-09-23T14:58:39.504Z,4.13
2023-09-23T15:04:01.349Z,4.28
2023-09-23T15:09:23.416Z,4.45
2023-09-23T15:14:46.377Z,4.55
2023-09-23T15:20:12.737Z,3.50
2023-09-23T15:25:34.585Z,2.40
2023-09-23T15:30:57.795Z,1.10
2023-09-23T15:36:19.612Z,1.00
2023-09-23T15:41:53.849Z,0.98
2023-09-23T15:47:20.103Z,1.25
2023-09-23T15:52:43.550Z,2.50
2023-09-23T15:58:05.455Z,2.90
2023-09-23T16:03:27.208Z,3.10
2023-09-23T16:08:49.220Z,3.10
2023-09-23T16:14:12.033Z,3.13
2023-09-23T16:19:34.503Z,3.00
2023-09-23T16:24:58.881Z,3.00
2023-09-23T16:30:20.479Z,2.70
2023-09-23T16:35:42.185Z,2.60
2023-09-23T16:41:04.196Z,2.70
2023-09-23T16:46:26.274Z,2.45
2023-09-23T16:51:49.242Z,2.70
2023-09-23T16:57:11.276Z,1.92
2023-09-23T17:02:33.396Z,2.42
2023-09-23T17:07:55.294Z,2.90
2023-09-23T17:13:16.991Z,2.20
2023-09-23T17:18:38.786Z,2.40
2023-09-23T17:24:00.799Z,3.03
2023-09-23T17:29:22.537Z,2.90
2023-09-23T17:34:45.579Z,4.70
2023-09-23T17:40:08.188Z,3.95
2023-09-23T17:45:29.845Z,5.28
2023-09-23T17:50:56.153Z,16.17
2023-09-23T17:56:17.909Z,4.03
2023-09-23T18:01:39.556Z,4.40
2023-09-23T18:07:01.185Z,4.57
2023-09-23T18:12:23.113Z,4.60
2023-09-23T18:17:44.780Z,4.00
2023-09-23T18:23:07.110Z,4.38
2023-09-23T18:28:29.208Z,4.82
2023-09-23T18:33:51.413Z,4.55
2023-09-23T18:39:13.276Z,4.20
2023-09-23T18:44:34.907Z,4.57
2023-09-23T18:49:56.634Z,5.32
2023-09-23T18:55:18.333Z,5.22
2023-09-23T19:00:41.083Z,4.68
2023-09-23T19:06:03.110Z,4.82
2023-09-23T19:11:24.797Z,4.50
2023-09-23T19:16:46.413Z,4.90
2023-09-23T19:22:14.097Z,4.68
2023-09-23T19:27:36.572Z,3.83
2023-09-23T19:32:58.372Z,3.50
2023-09-23T19:38:20.255Z,3.10
2023-09-23T19:43:42.004Z,2.75
2023-09-23T19:49:03.698Z,2.95
2023-09-23T19:54:26.421Z,2.42
2023-09-23T19:59:48.149Z,2.50
2023-09-23T20:05:11.641Z,2.58
2023-09-23T20:10:35.674Z,2.13
2023-09-23T20:15:58.287Z,2.35
2023-09-23T20:21:20.269Z,2.20
2023-09-23T20:26:41.986Z,2.20
2023-09-23T20:32:03.875Z,2.55
2023-09-23T20:37:25.469Z,2.10
2023-09-23T20:42:47.303Z,2.20
2023-09-23T20:48:10.204Z,2.47
2023-09-23T20:53:35.748Z,2.25
2023-09-23T20:58:58.339Z,2.50
2023-09-23T21:04:20.185Z,2.47
2023-09-23T21:09:42.348Z,2.08
2023-09-23T21:15:04.680Z,2.03
2023-09-23T21:20:26.770Z,2.50
2023-09-23T21:25:53.501Z,2.00
2023-09-23T21:31:16.618Z,2.35
2023-09-23T21:36:40.178Z,2.10
2023-09-23T21:42:02.309Z,2.45
2023-09-23T21:47:24.035Z,2.90
2023-09-23T21:52:45.636Z,3.03
2023-09-23T21:58:07.255Z,2.70
2023-09-23T22:03:32.044Z,3.13
2023-09-23T22:08:54.186Z,2.60
2023-09-23T22:14:16.380Z,2.85
2023-09-23T22:19:38.846Z,2.85
2023-09-23T22:25:00.462Z,2.92
2023-09-23T22:30:27.009Z,2.83
2023-09-23T22:35:48.935Z,2.92
2023-09-23T22:41:10.681Z,2.88
2023-09-23T22:46:32.342Z,2.80
2023-09-23T22:51:54.614Z,2.80
2023-09-23T22:57:16.162Z,2.70
2023-09-23T23:02:39.196Z,2.78
2023-09-23T23:08:02.267Z,3.10
2023-09-23T23:13:23.829Z,3.08
2023-09-23T23:18:45.722Z,2.63
2023-09-23T23:24:07.750Z,3.40
2023-09-23T23:29:29.421Z,3.78
2023-09-23T23:34:52.512Z,3.28
2023-09-23T23:40:14.203Z,3.42
2023-09-23T23:45:35.843Z,3.78
2023-09-23T23:51:10.525Z,3.40
2023-09-23T23:56:32.493Z,3.30
